Versailles, CT (06383)

3:45 PM EST on January 27, 2015 (GMT -0500)
KCTBALTI2 | Change Station
CLOSE
Current Station
Personal Weather Station
Location: Baltic, CT
Elevation: 187 ft
Nearby Weather Stations
Active Advisory: Winter Storm Warning Active Notice: Public Information Statement

Elev 187 ft 41.62 °N, 72.09 °W | Updated 2 seconds ago

Snow
Snow
19.8 °F
Feels Like 11 °F
N
6.9
Wind Variable Wind from WNW
Gusts 6.9 mph

Today
High -- | Low -- °F
--% Chance of Precip.
Yesterday
High -- | Low -- °F
Precip. -- in
7:04 AM 4:57 PM
First Quarter, 57% visible
Pressure 29.56 in
Visibility 0.5 miles
Clouds
Windchill 11 °F
Dew Point 16 °F
Humidity 86%
Rainfall 0.00 in
Snow Depth Not available.
UV Not available.
Pollen .10 out of 12
Air Quality Not available.
Flu Activity Not available.
SPECI KIJD 272038Z AUTO 34009KT 1/2SM SN VV013 M07/M09 A2956 RMK AO2 P0000 T10671094

More Conditions Fewer Conditions

Pressure 29.56 in
Visibility 0.5 miles
Clouds
Windchill 11 °F
Dew Point 16 °F
Humidity 86%
Rainfall 0.00 in
Snow Depth Not available.
UV Not available.
Pollen .10 out of 12
Air Quality Not available.
Flu Activity Not available.
SPECI KIJD 272038Z AUTO 34009KT 1/2SM SN VV013 M07/M09 A2956 RMK AO2 P0000 T10671094

More Conditions Fewer Conditions

10-Day Weather Forecast

Almanac

Astronomy

Jan. 27, 2015 Rise Set
Actual Time
Civil Twilight
Nautical Twilight
Astronomical Twilight
Moon
Length of Visible Light
Length of Day
Tomorrow will be .
, % of the Moon is Illuminated

Today's Extremes

State Highs State Lows

Community

WunderPhotos

Upload Photos

1,790,900 photos uploaded!

WunderBlogs® & News

Nearby

Air Quality

  Air Quality AQ Index Pollutant
Not available.

Snow Depth

Station Depth Elevation

Earthquake Activity

City Distance Mag. Time & Date
Minimum magnitude displayed is 2.5.

Coastal Water Temperatures

Place Temperature

Nearby Weather Stations